Time;durP1;ratioP1;P1;durP2;ratioP2;P2;SDS_P1;SDS_P2;PMS_P1;PMS_P2;Temp;Humidity;BMP_temperature;BMP_pressure;BME280_temperature;BME280_humidity;BME280_pressure;Samples;Min_cycle;Max_cycle;Signal;HPM_P1;HPM_P2
2023/05/09 00:02:07;;;;;;;7.30;3.58;;;;;;;;;;4977470;28;20040;-54
2023/05/09 00:04:34;;;;;;;7.10;3.38;;;;;;;;;;4978581;28;20042;-58
2023/05/09 00:07:00;;;;;;;6.03;3.17;;;;;;;;;;4977090;28;20459;-55
2023/05/09 00:09:27;;;;;;;4.78;2.80;;;;;;;;;;4977233;28;20045;-57
2023/05/09 00:11:54;;;;;;;5.60;2.47;;;;;;;;;;4977653;28;20030;-57
2023/05/09 00:14:20;;;;;;;5.55;2.22;;;;;;;;;;4978205;28;20041;-56
2023/05/09 00:16:47;;;;;;;5.15;2.20;;;;;;;;;;4976578;28;20030;-53
2023/05/09 00:19:14;;;;;;;4.13;1.90;;;;;;;;;;4977619;28;20027;-56
2023/05/09 00:21:41;;;;;;;4.55;2.30;;;;;;;;;;4975266;28;20033;-56
2023/05/09 00:24:07;;;;;;;3.70;1.63;;;;;;;;;;4976945;28;20043;-56
2023/05/09 00:26:34;;;;;;;4.45;1.80;;;;;;;;;;4976896;28;20038;-56
2023/05/09 00:29:01;;;;;;;4.32;1.70;;;;;;;;;;4977766;28;20038;-57
2023/05/09 00:31:27;;;;;;;4.43;1.52;;;;;;;;;;4976932;28;20038;-55
2023/05/09 00:33:54;;;;;;;5.32;1.52;;;;;;;;;;4976719;28;20473;-57
2023/05/09 00:36:22;;;;;;;4.05;1.63;;;;;;;;;;4977311;28;20030;-58
2023/05/09 00:38:49;;;;;;;4.90;1.65;;;;;;;;;;4977359;28;20022;-55
2023/05/09 00:41:15;;;;;;;3.25;1.17;;;;;;;;;;4992406;28;20034;-55
2023/05/09 00:43:42;;;;;;;2.90;1.00;;;;;;;;;;4977337;28;20122;-57
2023/05/09 00:46:10;;;;;;;3.83;1.70;;;;;;;;;;4975211;28;20061;-55
2023/05/09 00:48:37;;;;;;;5.57;1.90;;;;;;;;;;4977106;28;20128;-57
2023/05/09 00:51:03;;;;;;;4.50;2.40;;;;;;;;;;4976725;28;20041;-55
2023/05/09 00:53:30;;;;;;;5.45;2.40;;;;;;;;;;4976476;28;20038;-57
2023/05/09 00:55:57;;;;;;;6.57;2.67;;;;;;;;;;5008404;28;20030;-55
2023/05/09 00:58:24;;;;;;;5.85;2.70;;;;;;;;;;4977141;28;21077;-56
2023/05/09 01:00:51;;;;;;;4.88;2.70;;;;;;;;;;4978088;28;20187;-55
2023/05/09 01:03:18;;;;;;;4.82;2.38;;;;;;;;;;4980506;28;20715;-57
2023/05/09 01:05:55;;;;;;;4.32;2.38;;;;;;;;;;5011639;28;20112;-53
2023/05/09 01:08:24;;;;;;;6.00;2.58;;;;;;;;;;4977611;28;20055;-52
2023/05/09 01:10:51;;;;;;;6.50;2.47;;;;;;;;;;4978185;28;20034;-56
2023/05/09 01:13:36;;;;;;;7.07;2.42;;;;;;;;;;4980648;28;20041;-56
2023/05/09 01:16:04;;;;;;;4.20;2.25;;;;;;;;;;4978272;28;20038;-52
2023/05/09 01:18:51;;;;;;;4.68;2.53;;;;;;;;;;4978824;28;20038;-56
2023/05/09 01:21:23;;;;;;;4.38;2.20;;;;;;;;;;4977446;28;20034;-56
2023/05/09 01:24:01;;;;;;;4.47;2.22;;;;;;;;;;4979378;28;20066;-57
2023/05/09 01:26:46;;;;;;;4.65;2.20;;;;;;;;;;5008236;28;20044;-55
2023/05/09 01:29:31;;;;;;;3.72;2.00;;;;;;;;;;4977320;28;20074;-56
2023/05/09 01:31:59;;;;;;;4.88;2.30;;;;;;;;;;5009441;28;20035;-54
2023/05/09 01:34:27;;;;;;;5.32;2.70;;;;;;;;;;4979143;28;20092;-58
2023/05/09 01:37:02;;;;;;;7.20;2.72;;;;;;;;;;4977611;28;20026;-54
2023/05/09 01:39:30;;;;;;;4.93;2.47;;;;;;;;;;4977103;28;21715;-63
2023/05/09 01:41:58;;;;;;;6.03;2.50;;;;;;;;;;4978266;28;20483;-55
2023/05/09 01:44:25;;;;;;;4.25;2.13;;;;;;;;;;4978395;28;20037;-56
2023/05/09 01:46:52;;;;;;;6.20;3.28;;;;;;;;;;4976788;28;20045;-57
2023/05/09 01:49:20;;;;;;;4.57;2.63;;;;;;;;;;4977717;28;20037;-58
2023/05/09 01:51:47;;;;;;;4.72;2.72;;;;;;;;;;5008283;28;20038;-59
2023/05/09 01:54:14;;;;;;;4.72;2.78;;;;;;;;;;5006453;28;20797;-55
2023/05/09 01:56:42;;;;;;;5.53;3.08;;;;;;;;;;4976920;28;20042;-55
2023/05/09 01:59:09;;;;;;;5.40;2.47;;;;;;;;;;4975725;28;20030;-58
2023/05/09 02:01:37;;;;;;;5.28;2.75;;;;;;;;;;4977454;28;20257;-54
2023/05/09 02:04:04;;;;;;;4.93;2.75;;;;;;;;;;4975909;28;20045;-56
2023/05/09 02:06:31;;;;;;;5.80;3.20;;;;;;;;;;4975128;28;20050;-56
2023/05/09 02:08:59;;;;;;;5.90;3.10;;;;;;;;;;4976484;28;20034;-55
2023/05/09 02:11:25;;;;;;;6.07;3.13;;;;;;;;;;5011155;28;20035;-53
2023/05/09 02:13:52;;;;;;;6.18;3.38;;;;;;;;;;4978810;28;20034;-50
2023/05/09 02:16:19;;;;;;;7.55;3.20;;;;;;;;;;5009553;28;20064;-53
2023/05/09 02:18:46;;;;;;;5.85;3.22;;;;;;;;;;4979198;28;20034;-55
2023/05/09 02:21:13;;;;;;;5.55;3.13;;;;;;;;;;4979307;28;20113;-58
2023/05/09 02:23:40;;;;;;;6.68;3.58;;;;;;;;;;4978928;28;20037;-61
2023/05/09 02:26:06;;;;;;;6.35;3.42;;;;;;;;;;5008825;28;20104;-55
2023/05/09 02:28:33;;;;;;;5.53;3.15;;;;;;;;;;4978807;28;20034;-55
2023/05/09 02:31:02;;;;;;;9.35;3.85;;;;;;;;;;4979014;28;20034;-54
2023/05/09 02:33:29;;;;;;;6.95;4.28;;;;;;;;;;4978296;28;20042;-56
2023/05/09 02:35:56;;;;;;;6.90;4.35;;;;;;;;;;4978920;28;20035;-54
2023/05/09 02:38:23;;;;;;;8.80;5.30;;;;;;;;;;4978737;28;20085;-54
2023/05/09 02:40:51;;;;;;;12.23;5.03;;;;;;;;;;4978348;28;20026;-53
2023/05/09 02:43:18;;;;;;;13.50;5.32;;;;;;;;;;4978712;28;20034;-56
2023/05/09 02:45:45;;;;;;;9.25;5.03;;;;;;;;;;4979309;28;20525;-55
2023/05/09 02:48:11;;;;;;;7.63;4.30;;;;;;;;;;4978790;28;20050;-56
2023/05/09 02:50:40;;;;;;;7.65;4.07;;;;;;;;;;4979138;28;20037;-55
2023/05/09 02:53:07;;;;;;;8.00;4.25;;;;;;;;;;4979292;28;20648;-54
2023/05/09 02:55:34;;;;;;;7.28;4.03;;;;;;;;;;4978107;28;20049;-51
2023/05/09 02:58:00;;;;;;;6.38;3.67;;;;;;;;;;4978525;28;20148;-55
2023/05/09 03:00:27;;;;;;;7.05;3.85;;;;;;;;;;4978949;28;20045;-57
2023/05/09 03:02:54;;;;;;;8.65;3.90;;;;;;;;;;4979010;28;20034;-55
2023/05/09 03:05:21;;;;;;;6.57;4.20;;;;;;;;;;4979032;28;20038;-58
2023/05/09 03:07:48;;;;;;;7.50;4.38;;;;;;;;;;4978325;28;20050;-53
2023/05/09 03:10:14;;;;;;;8.50;4.32;;;;;;;;;;4978700;28;20027;-55
2023/05/09 03:12:42;;;;;;;8.85;4.75;;;;;;;;;;4979376;28;20036;-56
2023/05/09 03:15:09;;;;;;;8.05;4.43;;;;;;;;;;4978039;28;20036;-54
2023/05/09 03:17:35;;;;;;;10.93;4.30;;;;;;;;;;4978622;28;20027;-54
2023/05/09 03:20:04;;;;;;;7.03;4.40;;;;;;;;;;5010708;28;20041;-55
2023/05/09 03:22:31;;;;;;;8.85;4.85;;;;;;;;;;4979913;28;20050;-55
2023/05/09 03:24:57;;;;;;;8.10;4.65;;;;;;;;;;4977121;28;20034;-55
2023/05/09 03:27:25;;;;;;;8.95;4.72;;;;;;;;;;4977873;28;20068;-54
2023/05/09 03:29:51;;;;;;;9.70;5.13;;;;;;;;;;4976794;28;20030;-55
2023/05/09 03:32:18;;;;;;;9.80;6.15;;;;;;;;;;4979653;28;20082;-55
2023/05/09 03:34:45;;;;;;;10.63;6.63;;;;;;;;;;4980884;28;20064;-54
2023/05/09 03:37:11;;;;;;;14.05;8.05;;;;;;;;;;5010446;28;20045;-55
2023/05/09 03:39:38;;;;;;;12.07;7.65;;;;;;;;;;5010369;28;20467;-54
2023/05/09 03:42:06;;;;;;;15.65;8.07;;;;;;;;;;4977639;28;20039;-55
2023/05/09 03:44:33;;;;;;;15.43;8.63;;;;;;;;;;4979491;28;20026;-54
2023/05/09 03:46:59;;;;;;;13.35;8.43;;;;;;;;;;4976838;28;20621;-55
2023/05/09 03:49:26;;;;;;;13.77;8.23;;;;;;;;;;4978624;28;20105;-58
2023/05/09 03:51:53;;;;;;;16.77;8.27;;;;;;;;;;4978974;28;20124;-57
2023/05/09 03:54:19;;;;;;;16.17;8.35;;;;;;;;;;4978927;28;20041;-53
2023/05/09 03:56:46;;;;;;;14.60;9.18;;;;;;;;;;4977475;28;20916;-57
2023/05/09 03:59:13;;;;;;;16.67;10.13;;;;;;;;;;4979088;28;20037;-55
2023/05/09 04:01:39;;;;;;;17.33;10.50;;;;;;;;;;4978947;28;20053;-55
2023/05/09 04:04:06;;;;;;;15.90;9.65;;;;;;;;;;4984059;28;20137;-56
2023/05/09 04:06:33;;;;;;;17.00;10.30;;;;;;;;;;4979770;28;21732;-57
2023/05/09 04:09:01;;;;;;;19.02;11.40;;;;;;;;;;4981759;28;20061;-55
2023/05/09 04:11:28;;;;;;;16.67;10.65;;;;;;;;;;4998025;28;20034;-55
2023/05/09 04:13:55;;;;;;;19.83;11.60;;;;;;;;;;4977553;28;20108;-51
2023/05/09 04:16:22;;;;;;;19.25;12.48;;;;;;;;;;4976950;28;20065;-51
2023/05/09 04:18:48;;;;;;;21.38;12.90;;;;;;;;;;4977981;28;20054;-54
2023/05/09 04:21:15;;;;;;;16.90;11.65;;;;;;;;;;4978303;28;20646;-57
2023/05/09 04:23:42;;;;;;;17.83;11.40;;;;;;;;;;4978382;28;20141;-55
2023/05/09 04:26:11;;;;;;;20.63;11.93;;;;;;;;;;4976740;28;20089;-56
2023/05/09 04:28:37;;;;;;;18.83;11.75;;;;;;;;;;4976553;28;20045;-54
2023/05/09 04:31:04;;;;;;;21.80;12.00;;;;;;;;;;4977090;28;20030;-56
2023/05/09 04:33:31;;;;;;;18.48;10.90;;;;;;;;;;4975642;28;20058;-55
2023/05/09 04:35:57;;;;;;;17.55;11.20;;;;;;;;;;4991456;28;20124;-56
2023/05/09 04:38:24;;;;;;;21.23;11.95;;;;;;;;;;4978163;28;20621;-57
2023/05/09 04:40:51;;;;;;;17.73;10.27;;;;;;;;;;4977009;28;20077;-55
2023/05/09 04:43:18;;;;;;;17.02;10.65;;;;;;;;;;4977060;28;20475;-59
2023/05/09 04:45:45;;;;;;;13.50;8.55;;;;;;;;;;5008499;28;20041;-55
2023/05/09 04:48:12;;;;;;;14.40;9.20;;;;;;;;;;4978036;28;20138;-56
2023/05/09 04:50:38;;;;;;;19.05;8.60;;;;;;;;;;4977631;28;20117;-56
2023/05/09 04:53:07;;;;;;;14.43;9.32;;;;;;;;;;4977368;28;21019;-54
2023/05/09 04:55:34;;;;;;;12.70;7.65;;;;;;;;;;5009851;28;20054;-55
2023/05/09 04:58:01;;;;;;;15.30;8.88;;;;;;;;;;5009185;28;20042;-57
2023/05/09 05:00:27;;;;;;;13.93;8.05;;;;;;;;;;4978459;28;20085;-56
2023/05/09 05:02:54;;;;;;;11.88;7.97;;;;;;;;;;4977842;28;20044;-59
2023/05/09 05:05:21;;;;;;;13.35;7.93;;;;;;;;;;4977662;28;20585;-55
2023/05/09 05:07:47;;;;;;;10.98;7.32;;;;;;;;;;4976735;28;20141;-54
2023/05/09 05:10:15;;;;;;;11.48;7.43;;;;;;;;;;4978340;28;20027;-55
2023/05/09 05:12:42;;;;;;;13.05;7.28;;;;;;;;;;4977976;28;20034;-57
2023/05/09 05:15:09;;;;;;;10.85;6.78;;;;;;;;;;4976721;28;20033;-59
2023/05/09 05:17:35;;;;;;;9.63;6.53;;;;;;;;;;4978203;28;20322;-57
2023/05/09 05:20:05;;;;;;;10.32;6.93;;;;;;;;;;4976608;28;20038;-55
2023/05/09 05:22:32;;;;;;;12.05;7.40;;;;;;;;;;4977701;28;20027;-59
2023/05/09 05:24:58;;;;;;;10.38;6.25;;;;;;;;;;4976423;28;20516;-56
2023/05/09 05:27:25;;;;;;;11.57;7.38;;;;;;;;;;5007274;28;20038;-56
2023/05/09 05:29:55;;;;;;;10.25;7.25;;;;;;;;;;4976326;28;20037;-57
2023/05/09 05:32:21;;;;;;;10.30;7.40;;;;;;;;;;4977004;28;20037;-54
2023/05/09 05:34:48;;;;;;;11.27;8.02;;;;;;;;;;4976715;28;20022;-55
2023/05/09 05:37:14;;;;;;;12.75;8.07;;;;;;;;;;4976606;28;20104;-54
2023/05/09 05:39:41;;;;;;;11.43;8.43;;;;;;;;;;4978095;28;21467;-58
2023/05/09 05:42:08;;;;;;;11.55;7.72;;;;;;;;;;5007844;28;20034;-57
2023/05/09 05:44:34;;;;;;;12.48;8.25;;;;;;;;;;4978273;28;20038;-60
2023/05/09 05:47:01;;;;;;;12.25;8.35;;;;;;;;;;5010446;28;20414;-56
2023/05/09 05:49:27;;;;;;;12.75;8.10;;;;;;;;;;4978968;28;20117;-54
2023/05/09 05:51:54;;;;;;;13.63;8.60;;;;;;;;;;4978087;28;20762;-57
2023/05/09 05:54:21;;;;;;;12.10;8.20;;;;;;;;;;4979020;28;20169;-55
2023/05/09 05:56:47;;;;;;;11.55;8.23;;;;;;;;;;4978512;28;20499;-56
2023/05/09 05:59:15;;;;;;;11.98;7.68;;;;;;;;;;4980099;28;20057;-55
2023/05/09 06:01:41;;;;;;;10.50;6.47;;;;;;;;;;4980206;28;20026;-57
2023/05/09 06:04:08;;;;;;;10.15;6.43;;;;;;;;;;4979021;28;20034;-53
2023/05/09 06:06:34;;;;;;;11.77;7.07;;;;;;;;;;4979575;28;20058;-55
2023/05/09 06:09:01;;;;;;;10.18;6.93;;;;;;;;;;4978942;28;20054;-55
2023/05/09 06:11:28;;;;;;;10.70;6.88;;;;;;;;;;4978512;28;20038;-54
2023/05/09 06:13:54;;;;;;;10.40;6.40;;;;;;;;;;4979681;28;20058;-57
2023/05/09 06:16:21;;;;;;;11.50;6.90;;;;;;;;;;4979022;28;20076;-52
2023/05/09 06:18:50;;;;;;;10.73;7.35;;;;;;;;;;4980138;28;20034;-54
2023/05/09 06:21:16;;;;;;;10.50;6.38;;;;;;;;;;5010563;28;20791;-53
2023/05/09 06:23:43;;;;;;;9.50;6.30;;;;;;;;;;4978789;28;20041;-55
2023/05/09 06:26:11;;;;;;;13.02;6.63;;;;;;;;;;4978471;28;20117;-53
2023/05/09 06:28:37;;;;;;;9.73;5.90;;;;;;;;;;4978408;28;21997;-56
2023/05/09 06:31:04;;;;;;;8.98;6.20;;;;;;;;;;4979596;28;20022;-55
2023/05/09 06:33:31;;;;;;;12.07;7.13;;;;;;;;;;4978451;28;20031;-54
2023/05/09 06:35:59;;;;;;;12.00;7.68;;;;;;;;;;4978001;28;20030;-56
2023/05/09 06:38:25;;;;;;;11.88;7.95;;;;;;;;;;4978572;28;20450;-56
2023/05/09 06:40:52;;;;;;;14.88;8.80;;;;;;;;;;4978977;28;20045;-55
2023/05/09 06:43:19;;;;;;;14.93;9.35;;;;;;;;;;4978465;28;20046;-55
2023/05/09 06:45:45;;;;;;;17.95;10.32;;;;;;;;;;5009484;28;20038;-53
2023/05/09 06:48:12;;;;;;;16.38;10.10;;;;;;;;;;4978260;28;20897;-53
2023/05/09 06:50:39;;;;;;;17.98;11.35;;;;;;;;;;4978668;28;20797;-56
2023/05/09 06:53:05;;;;;;;19.83;12.23;;;;;;;;;;4983931;28;20037;-57
2023/05/09 06:55:32;;;;;;;20.00;12.35;;;;;;;;;;4976943;28;20065;-56
2023/05/09 06:57:59;;;;;;;23.33;14.02;;;;;;;;;;4979315;28;20037;-53
2023/05/09 07:00:25;;;;;;;22.88;14.48;;;;;;;;;;4979010;28;20473;-56
2023/05/09 07:02:52;;;;;;;24.35;15.50;;;;;;;;;;4978677;28;20961;-55
2023/05/09 07:05:19;;;;;;;25.55;17.13;;;;;;;;;;5009645;28;20042;-57
2023/05/09 07:07:45;;;;;;;27.73;17.67;;;;;;;;;;4976657;28;20057;-57
2023/05/09 07:10:12;;;;;;;31.50;16.98;;;;;;;;;;4980081;28;20030;-53
2023/05/09 07:12:39;;;;;;;26.35;16.38;;;;;;;;;;4979255;28;20060;-55
2023/05/09 07:15:06;;;;;;;27.38;16.52;;;;;;;;;;4978814;28;20026;-56
2023/05/09 07:17:32;;;;;;;28.75;17.08;;;;;;;;;;4978582;28;20030;-57
2023/05/09 07:19:59;;;;;;;23.73;15.20;;;;;;;;;;4978718;28;20072;-54
2023/05/09 07:22:26;;;;;;;24.25;14.40;;;;;;;;;;4977765;28;20085;-57
2023/05/09 07:24:52;;;;;;;28.48;15.93;;;;;;;;;;4971750;28;20027;-57
2023/05/09 07:27:19;;;;;;;27.80;15.73;;;;;;;;;;4979145;28;20434;-55
2023/05/09 07:29:47;;;;;;;26.88;16.60;;;;;;;;;;4978711;28;20033;-57
2023/05/09 07:32:14;;;;;;;27.67;15.77;;;;;;;;;;4978067;28;20046;-55
2023/05/09 07:34:41;;;;;;;26.13;15.48;;;;;;;;;;4977440;28;20782;-54
2023/05/09 07:37:07;;;;;;;23.45;14.65;;;;;;;;;;4978077;28;20117;-54
2023/05/09 07:39:34;;;;;;;26.33;14.80;;;;;;;;;;4978707;28;20895;-57
2023/05/09 07:42:01;;;;;;;26.95;16.20;;;;;;;;;;4978314;28;20034;-55
2023/05/09 07:44:27;;;;;;;28.83;15.85;;;;;;;;;;4978381;28;20042;-55
2023/05/09 07:46:54;;;;;;;27.08;16.42;;;;;;;;;;4978843;28;21850;-55
2023/05/09 07:49:21;;;;;;;26.90;17.30;;;;;;;;;;4978739;28;20117;-55
2023/05/09 07:51:48;;;;;;;28.58;16.67;;;;;;;;;;4994140;28;20072;-53
2023/05/09 07:54:16;;;;;;;31.48;16.67;;;;;;;;;;4977521;28;20031;-57
2023/05/09 07:56:42;;;;;;;27.33;16.98;;;;;;;;;;4977780;28;22266;-54
2023/05/09 07:59:09;;;;;;;24.92;15.80;;;;;;;;;;4977357;28;20034;-51
2023/05/09 08:01:36;;;;;;;23.67;13.27;;;;;;;;;;4977020;28;20452;-55
2023/05/09 08:04:05;;;;;;;18.38;10.93;;;;;;;;;;4977932;28;20387;-55
2023/05/09 08:06:32;;;;;;;20.20;9.38;;;;;;;;;;4976583;28;20061;-52
2023/05/09 08:09:00;;;;;;;16.85;9.80;;;;;;;;;;4977058;28;20086;-52
2023/05/09 08:11:27;;;;;;;16.38;9.32;;;;;;;;;;4977448;28;20534;-55
2023/05/09 08:13:53;;;;;;;11.20;6.90;;;;;;;;;;4977203;28;20108;-56
2023/05/09 08:16:20;;;;;;;10.80;6.47;;;;;;;;;;4977048;28;20038;-55
2023/05/09 08:18:47;;;;;;;9.00;5.63;;;;;;;;;;4977090;28;20113;-54
2023/05/09 08:21:13;;;;;;;9.90;5.82;;;;;;;;;;4976857;28;20034;-58
2023/05/09 08:23:40;;;;;;;8.65;4.80;;;;;;;;;;4976521;28;20447;-54
2023/05/09 08:26:07;;;;;;;10.80;5.53;;;;;;;;;;4977115;28;20590;-53
2023/05/09 08:28:33;;;;;;;11.18;4.88;;;;;;;;;;4977024;28;20085;-57
2023/05/09 08:31:00;;;;;;;8.88;5.20;;;;;;;;;;5008658;28;20097;-56
2023/05/09 08:33:26;;;;;;;8.48;5.05;;;;;;;;;;4978937;28;20893;-57
2023/05/09 08:35:55;;;;;;;11.45;5.13;;;;;;;;;;5007961;28;20523;-60
2023/05/09 08:38:27;;;;;;;9.48;5.25;;;;;;;;;;4977120;28;20045;-55
2023/05/09 08:40:59;;;;;;;8.15;4.38;;;;;;;;;;4977007;28;20070;-56
2023/05/09 08:43:27;;;;;;;8.10;5.15;;;;;;;;;;4977342;28;20034;-57
2023/05/09 08:45:59;;;;;;;11.23;5.22;;;;;;;;;;4977078;28;20080;-53
2023/05/09 08:48:26;;;;;;;10.02;4.75;;;;;;;;;;4976425;28;20057;-57
2023/05/09 08:50:54;;;;;;;9.88;5.45;;;;;;;;;;5007918;28;20380;-56
2023/05/09 08:53:21;;;;;;;9.23;4.93;;;;;;;;;;5008919;28;20034;-55
2023/05/09 08:55:49;;;;;;;8.82;5.22;;;;;;;;;;5007656;28;20735;-55
2023/05/09 08:58:18;;;;;;;10.18;5.45;;;;;;;;;;4977267;28;20342;-53
2023/05/09 09:00:46;;;;;;;9.73;5.55;;;;;;;;;;4977027;28;20030;-56
2023/05/09 09:03:12;;;;;;;12.48;5.82;;;;;;;;;;4977244;28;20030;-54
2023/05/09 09:05:42;;;;;;;12.43;6.35;;;;;;;;;;4975267;28;20454;-53
2023/05/09 09:08:10;;;;;;;9.52;5.78;;;;;;;;;;4977463;28;20050;-54
2023/05/09 09:10:40;;;;;;;11.23;6.28;;;;;;;;;;4977972;28;20422;-53
2023/05/09 09:13:07;;;;;;;10.45;6.30;;;;;;;;;;4977218;28;20125;-55
2023/05/09 09:15:35;;;;;;;11.07;6.50;;;;;;;;;;5008393;28;20033;-54
2023/05/09 09:18:09;;;;;;;11.48;6.47;;;;;;;;;;5010669;28;20034;-54
2023/05/09 09:20:38;;;;;;;11.23;6.68;;;;;;;;;;4978823;28;20196;-54
2023/05/09 09:23:09;;;;;;;11.43;6.53;;;;;;;;;;4978412;28;20042;-57
2023/05/09 09:25:36;;;;;;;12.98;7.00;;;;;;;;;;4994481;28;20038;-57
2023/05/09 09:28:03;;;;;;;11.43;6.72;;;;;;;;;;4983645;28;20042;-55
2023/05/09 09:30:29;;;;;;;10.93;6.68;;;;;;;;;;4978304;28;20042;-54
2023/05/09 09:32:59;;;;;;;12.02;7.18;;;;;;;;;;4976495;28;20092;-54
2023/05/09 09:35:25;;;;;;;10.93;6.72;;;;;;;;;;4977152;28;20026;-55
2023/05/09 09:38:00;;;;;;;13.85;7.07;;;;;;;;;;4976648;28;20071;-53
2023/05/09 09:40:26;;;;;;;12.63;7.10;;;;;;;;;;4975988;28;20097;-56
2023/05/09 09:42:53;;;;;;;11.48;6.97;;;;;;;;;;4976196;28;20039;-55
2023/05/09 09:45:20;;;;;;;11.25;6.65;;;;;;;;;;4976567;28;20086;-53
2023/05/09 09:47:48;;;;;;;11.15;6.60;;;;;;;;;;4975856;28;20126;-55
2023/05/09 09:50:21;;;;;;;10.98;6.28;;;;;;;;;;4976693;28;20475;-53
2023/05/09 09:52:51;;;;;;;10.98;6.57;;;;;;;;;;4976662;28;20042;-54
2023/05/09 09:55:18;;;;;;;10.50;5.95;;;;;;;;;;4975958;28;20034;-55
2023/05/09 09:57:46;;;;;;;11.63;6.25;;;;;;;;;;4976375;28;20488;-55
2023/05/09 10:00:17;;;;;;;8.60;5.38;;;;;;;;;;4975030;28;20027;-54
2023/05/09 10:02:50;;;;;;;10.55;5.88;;;;;;;;;;4975718;28;20045;-53
2023/05/09 10:05:24;;;;;;;10.65;6.07;;;;;;;;;;4977174;28;20442;-55
2023/05/09 10:07:56;;;;;;;9.65;5.82;;;;;;;;;;4974666;28;20054;-56
2023/05/09 10:10:25;;;;;;;12.20;5.97;;;;;;;;;;5007838;28;20509;-55
2023/05/09 10:12:54;;;;;;;11.52;5.88;;;;;;;;;;4976837;28;20060;-54
2023/05/09 10:15:21;;;;;;;10.95;5.43;;;;;;;;;;4977377;28;20186;-53
2023/05/09 10:17:48;;;;;;;9.48;5.78;;;;;;;;;;4975557;28;20343;-54
2023/05/09 10:20:15;;;;;;;10.65;5.18;;;;;;;;;;4977029;28;20107;-56
2023/05/09 10:22:42;;;;;;;9.80;5.35;;;;;;;;;;4977117;28;20134;-53
2023/05/09 10:25:15;;;;;;;9.65;5.57;;;;;;;;;;4975632;28;20037;-54
2023/05/09 10:27:44;;;;;;;10.38;5.45;;;;;;;;;;4975856;28;20050;-57
2023/05/09 10:30:27;;;;;;;11.57;6.60;;;;;;;;;;4976648;28;20038;-55
2023/05/09 10:32:58;;;;;;;11.07;5.93;;;;;;;;;;4980975;28;20050;-55
2023/05/09 10:35:26;;;;;;;11.98;6.38;;;;;;;;;;5009601;28;20038;-54
2023/05/09 10:37:58;;;;;;;11.80;6.38;;;;;;;;;;4980625;28;20043;-54
2023/05/09 10:40:25;;;;;;;15.18;6.25;;;;;;;;;;4980679;28;20042;-52
2023/05/09 10:42:52;;;;;;;10.88;5.85;;;;;;;;;;4980141;28;20030;-53
2023/05/09 10:45:20;;;;;;;12.02;6.18;;;;;;;;;;4978184;28;20212;-51
2023/05/09 10:47:48;;;;;;;11.02;5.95;;;;;;;;;;4978797;28;20080;-53
2023/05/09 10:50:16;;;;;;;13.57;6.20;;;;;;;;;;4981507;28;20074;-53
2023/05/09 10:53:01;;;;;;;13.40;6.43;;;;;;;;;;5009422;28;20049;-52
2023/05/09 10:55:36;;;;;;;15.77;6.28;;;;;;;;;;5009824;28;20092;-55
2023/05/09 10:58:24;;;;;;;9.63;6.00;;;;;;;;;;4978899;28;20033;-54
2023/05/09 11:00:51;;;;;;;9.23;5.38;;;;;;;;;;4980067;28;20426;-56
2023/05/09 11:03:18;;;;;;;11.73;6.18;;;;;;;;;;4979414;28;20022;-56
2023/05/09 11:05:46;;;;;;;9.65;5.68;;;;;;;;;;4977890;28;20410;-58
2023/05/09 11:08:33;;;;;;;10.32;5.88;;;;;;;;;;5007628;28;20080;-54
2023/05/09 11:11:20;;;;;;;11.20;6.07;;;;;;;;;;4990754;28;20053;-62
2023/05/09 11:13:47;;;;;;;11.15;6.28;;;;;;;;;;5008854;28;20090;-56
2023/05/09 11:16:14;;;;;;;12.30;6.57;;;;;;;;;;5006674;28;20038;-56
2023/05/09 11:18:51;;;;;;;13.18;6.65;;;;;;;;;;5006363;28;20042;-52
2023/05/09 11:21:19;;;;;;;12.23;6.88;;;;;;;;;;5007759;28;20091;-55
2023/05/09 11:23:45;;;;;;;10.95;6.20;;;;;;;;;;5006237;28;20034;-61
2023/05/09 11:26:15;;;;;;;15.18;6.57;;;;;;;;;;5007030;28;20944;-54
2023/05/09 11:28:41;;;;;;;13.80;6.63;;;;;;;;;;5007785;28;20049;-55
2023/05/09 11:31:09;;;;;;;10.90;6.43;;;;;;;;;;5008511;28;20034;-52
2023/05/09 11:33:36;;;;;;;15.27;6.97;;;;;;;;;;5006244;28;20076;-52
2023/05/09 11:36:17;;;;;;;14.48;6.82;;;;;;;;;;5022523;28;20034;-52
2023/05/09 11:38:45;;;;;;;11.88;6.63;;;;;;;;;;5005975;28;20046;-51
2023/05/09 11:41:11;;;;;;;14.80;7.07;;;;;;;;;;5006120;28;20083;-53
2023/05/09 11:43:39;;;;;;;12.93;7.30;;;;;;;;;;5006619;28;20503;-57
2023/05/09 11:46:06;;;;;;;15.75;7.35;;;;;;;;;;5013102;28;20038;-54
2023/05/09 11:48:40;;;;;;;13.52;7.22;;;;;;;;;;4978052;28;20073;-54
2023/05/09 11:51:07;;;;;;;15.20;7.30;;;;;;;;;;4977940;28;20045;-60
2023/05/09 11:53:35;;;;;;;13.27;7.47;;;;;;;;;;4978808;28;20037;-61
2023/05/09 11:56:05;;;;;;;16.98;9.00;;;;;;;;;;4976374;28;20034;-54
2023/05/09 11:58:31;;;;;;;18.75;9.27;;;;;;;;;;4978270;28;20122;-53
2023/05/09 12:00:58;;;;;;;18.55;9.75;;;;;;;;;;4978197;28;20065;-55
2023/05/09 12:03:25;;;;;;;20.63;10.48;;;;;;;;;;5008185;28;20878;-51
2023/05/09 12:05:51;;;;;;;17.73;9.85;;;;;;;;;;4976407;28;20027;-55
2023/05/09 12:08:18;;;;;;;17.90;9.63;;;;;;;;;;5008504;28;20042;-57
2023/05/09 12:10:45;;;;;;;22.70;11.43;;;;;;;;;;4978492;28;20469;-54
2023/05/09 12:13:11;;;;;;;22.10;10.63;;;;;;;;;;4978637;28;20038;-56
2023/05/09 12:15:38;;;;;;;20.20;10.90;;;;;;;;;;4977290;28;20050;-55
2023/05/09 12:18:06;;;;;;;23.08;10.25;;;;;;;;;;4974606;28;20034;-55
2023/05/09 12:20:47;;;;;;;21.52;11.10;;;;;;;;;;4976828;28;20037;-57
2023/05/09 12:23:14;;;;;;;19.52;10.13;;;;;;;;;;4975512;28;20533;-53
2023/05/09 12:25:56;;;;;;;22.85;10.68;;;;;;;;;;4974784;28;20052;-55
2023/05/09 12:28:23;;;;;;;19.20;11.52;;;;;;;;;;4976168;28;20053;-51
2023/05/09 12:30:50;;;;;;;23.20;11.57;;;;;;;;;;4977354;28;20040;-56
2023/05/09 12:33:17;;;;;;;22.05;11.52;;;;;;;;;;4978001;28;20045;-58
2023/05/09 12:35:47;;;;;;;20.95;11.27;;;;;;;;;;4976082;28;20050;-58
2023/05/09 12:38:23;;;;;;;21.95;11.55;;;;;;;;;;4977442;28;20027;-56
2023/05/09 12:41:00;;;;;;;20.52;11.98;;;;;;;;;;4976561;28;20077;-58
2023/05/09 12:43:26;;;;;;;28.33;11.77;;;;;;;;;;4976710;28;20034;-58
2023/05/09 12:45:53;;;;;;;23.20;11.93;;;;;;;;;;4976439;28;20065;-63
2023/05/09 12:48:23;;;;;;;27.48;13.20;;;;;;;;;;4977462;28;20188;-60
2023/05/09 12:50:49;;;;;;;23.45;12.35;;;;;;;;;;4991098;28;20088;-54
2023/05/09 12:53:23;;;;;;;23.25;11.98;;;;;;;;;;4975835;28;20038;-54
2023/05/09 12:55:50;;;;;;;24.85;12.35;;;;;;;;;;4977531;28;20038;-56
2023/05/09 12:58:16;;;;;;;22.05;11.70;;;;;;;;;;4992869;28;20408;-55
2023/05/09 13:00:46;;;;;;;18.65;11.32;;;;;;;;;;4976192;28;20104;-58
2023/05/09 13:03:23;;;;;;;20.98;11.52;;;;;;;;;;4992884;28;20040;-54
2023/05/09 13:06:03;;;;;;;22.00;10.90;;;;;;;;;;4977538;28;20038;-52
2023/05/09 13:08:30;;;;;;;18.40;10.52;;;;;;;;;;4977305;28;20045;-52
2023/05/09 13:10:57;;;;;;;23.88;10.90;;;;;;;;;;4993528;28;20048;-59
2023/05/09 13:13:27;;;;;;;17.50;9.93;;;;;;;;;;4978509;28;20763;-56
2023/05/09 13:15:55;;;;;;;18.95;10.38;;;;;;;;;;4977023;28;20038;-56
2023/05/09 13:18:23;;;;;;;19.65;10.70;;;;;;;;;;4976847;28;20126;-57
2023/05/09 13:20:52;;;;;;;17.92;10.18;;;;;;;;;;4977605;28;20909;-59
2023/05/09 13:23:19;;;;;;;21.00;10.15;;;;;;;;;;4976076;28;20038;-56
2023/05/09 13:25:45;;;;;;;18.35;10.40;;;;;;;;;;4974855;28;20026;-58
2023/05/09 13:28:12;;;;;;;17.20;9.85;;;;;;;;;;4976506;28;20374;-57
2023/05/09 13:30:39;;;;;;;16.45;9.70;;;;;;;;;;4977393;28;20026;-56
2023/05/09 13:33:05;;;;;;;20.13;10.52;;;;;;;;;;4975889;28;20387;-55
2023/05/09 13:35:32;;;;;;;21.05;10.88;;;;;;;;;;4975095;28;20934;-61
2023/05/09 13:37:59;;;;;;;16.70;10.30;;;;;;;;;;4975289;28;20038;-57
2023/05/09 13:40:26;;;;;;;17.40;9.25;;;;;;;;;;4976446;28;20022;-54
2023/05/09 13:42:53;;;;;;;16.25;9.68;;;;;;;;;;5006498;28;20041;-54
2023/05/09 13:45:22;;;;;;;19.05;9.05;;;;;;;;;;4975496;28;20041;-55
2023/05/09 13:47:49;;;;;;;17.90;9.27;;;;;;;;;;4974059;28;20046;-55
2023/05/09 13:50:16;;;;;;;19.77;9.27;;;;;;;;;;4974838;28;20034;-54
2023/05/09 13:52:42;;;;;;;18.67;9.00;;;;;;;;;;4976108;28;20034;-54
2023/05/09 13:55:09;;;;;;;17.52;9.38;;;;;;;;;;4975287;28;20057;-56
2023/05/09 13:57:35;;;;;;;19.08;9.73;;;;;;;;;;5006997;28;20064;-54
2023/05/09 14:00:03;;;;;;;23.38;9.52;;;;;;;;;;4975455;28;20475;-57
2023/05/09 14:02:29;;;;;;;17.23;8.50;;;;;;;;;;4975646;28;20981;-56
2023/05/09 14:04:57;;;;;;;15.13;8.50;;;;;;;;;;5003911;28;20041;-59
2023/05/09 14:07:24;;;;;;;16.52;8.93;;;;;;;;;;4978716;28;20117;-54
2023/05/09 14:09:50;;;;;;;18.17;9.38;;;;;;;;;;4979125;28;20062;-56
2023/05/09 14:12:18;;;;;;;17.27;8.85;;;;;;;;;;4978832;28;21553;-55
2023/05/09 14:14:44;;;;;;;16.00;9.07;;;;;;;;;;4978825;28;20407;-54
2023/05/09 14:17:12;;;;;;;17.98;9.00;;;;;;;;;;4978786;28;20073;-56
2023/05/09 14:19:38;;;;;;;16.00;9.15;;;;;;;;;;5010824;28;20177;-56
2023/05/09 14:22:05;;;;;;;18.35;9.30;;;;;;;;;;5010390;28;20023;-53
2023/05/09 14:24:32;;;;;;;16.33;8.75;;;;;;;;;;4976693;28;20081;-54
2023/05/09 14:26:58;;;;;;;19.27;10.18;;;;;;;;;;5011227;28;20041;-55
2023/05/09 14:29:25;;;;;;;21.02;10.13;;;;;;;;;;4978863;28;20046;-55
2023/05/09 14:31:52;;;;;;;17.60;9.77;;;;;;;;;;4979273;28;20027;-53
2023/05/09 14:34:18;;;;;;;18.30;9.98;;;;;;;;;;5010655;28;20062;-56
2023/05/09 14:36:45;;;;;;;16.27;9.20;;;;;;;;;;4978998;28;20090;-57